Time;durP1;ratioP1;P1;durP2;ratioP2;P2;SDS_P1;SDS_P2;PMS_P1;PMS_P2;Temp;Humidity;BMP_temperature;BMP_pressure;BME280_temperature;BME280_humidity;BME280_pressure;Samples;Min_cycle;Max_cycle;Signal;HPM_P1;HPM_P2
2022/04/18 00:02:27;;;;;;;1.10;0.60;;;9.10;99.90;;;;;;4919949;29;20233;-77
2022/04/18 00:04:54;;;;;;;0.67;0.53;;;9.00;99.90;;;;;;4919895;29;20212;-77
2022/04/18 00:07:22;;;;;;;1.77;0.80;;;9.00;99.90;;;;;;4919445;29;20212;-77
2022/04/18 00:09:49;;;;;;;0.70;0.57;;;8.90;99.90;;;;;;4919429;29;20218;-76
2022/04/18 00:12:16;;;;;;;2.17;0.53;;;8.80;99.90;;;;;;4919257;29;20237;-77
2022/04/18 00:14:44;;;;;;;0.90;0.60;;;8.80;99.90;;;;;;4919205;29;20210;-77
2022/04/18 00:17:11;;;;;;;1.60;0.90;;;8.70;99.90;;;;;;4919071;29;20667;-77
2022/04/18 00:19:38;;;;;;;1.17;0.60;;;8.70;99.90;;;;;;4918989;29;20682;-76
2022/04/18 00:22:05;;;;;;;2.53;0.70;;;8.60;99.90;;;;;;4918861;29;20719;-77
2022/04/18 00:24:34;;;;;;;5.03;0.60;;;8.60;99.90;;;;;;4919462;29;20306;-77
2022/04/18 00:27:01;;;;;;;1.50;0.80;;;8.60;99.90;;;;;;4919225;29;20693;-77
2022/04/18 00:29:28;;;;;;;0.80;0.50;;;8.50;99.90;;;;;;4919335;29;20578;-78
2022/04/18 00:31:55;;;;;;;0.83;0.60;;;8.50;99.90;;;;;;4918887;29;20320;-78
2022/04/18 00:34:22;;;;;;;3.07;0.70;;;8.40;99.90;;;;;;4919181;29;20239;-77
2022/04/18 00:36:49;;;;;;;1.13;0.60;;;8.40;99.90;;;;;;4919152;29;20216;-77
2022/04/18 00:39:16;;;;;;;0.80;0.50;;;8.40;99.90;;;;;;4918707;29;20213;-77
2022/04/18 00:41:44;;;;;;;2.90;0.60;;;8.30;99.90;;;;;;4918774;29;20256;-77
2022/04/18 00:44:11;;;;;;;0.90;0.67;;;8.30;99.90;;;;;;4919176;29;20221;-76
2022/04/18 00:46:37;;;;;;;0.87;0.60;;;8.30;99.90;;;;;;4918838;29;20209;-77
2022/04/18 00:49:04;;;;;;;0.87;0.60;;;8.20;99.90;;;;;;4918817;29;20667;-77
2022/04/18 00:51:31;;;;;;;1.67;0.70;;;8.10;99.90;;;;;;4918695;29;20598;-78
2022/04/18 00:53:59;;;;;;;1.17;0.90;;;8.00;99.90;;;;;;4918558;29;20237;-77
2022/04/18 00:56:27;;;;;;;0.80;0.60;;;8.00;99.90;;;;;;4918972;29;20209;-78
2022/04/18 00:58:56;;;;;;;1.73;0.70;;;8.00;99.90;;;;;;4918631;29;20210;-69
2022/04/18 01:01:24;;;;;;;1.97;0.73;;;7.90;99.90;;;;;;4918433;29;20233;-69
2022/04/18 01:03:51;;;;;;;1.33;0.70;;;7.90;99.90;;;;;;4918225;29;20206;-77
2022/04/18 01:06:19;;;;;;;0.73;0.50;;;7.90;99.90;;;;;;4918308;29;20220;-77
2022/04/18 01:08:48;;;;;;;0.57;0.30;;;7.90;99.90;;;;;;4918420;29;20213;-78
2022/04/18 01:11:15;;;;;;;1.07;0.60;;;7.80;99.90;;;;;;4918562;29;20337;-69
2022/04/18 01:13:43;;;;;;;1.90;0.50;;;7.80;99.90;;;;;;4918322;29;20237;-77
2022/04/18 01:16:12;;;;;;;1.27;0.60;;;7.70;99.90;;;;;;4918478;29;20206;-77
2022/04/18 01:18:39;;;;;;;0.80;0.40;;;7.80;99.90;;;;;;4918261;29;20271;-69
2022/04/18 01:21:08;;;;;;;1.53;0.70;;;7.80;99.90;;;;;;4918101;29;20316;-77
2022/04/18 01:23:35;;;;;;;3.10;0.70;;;7.80;99.90;;;;;;4918587;29;20210;-77
2022/04/18 01:29:02;;;;;;;3.10;0.80;;;7.70;99.90;;;;;;4918123;29;20212;-78
2022/04/18 01:31:30;;;;;;;2.27;0.90;;;7.70;99.90;;;;;;4917698;29;20324;-77
2022/04/18 01:33:57;;;;;;;3.00;0.70;;;7.60;99.90;;;;;;4918314;29;20241;-76
2022/04/18 01:36:26;;;;;;;4.63;0.60;;;7.70;99.90;;;;;;4918510;29;20210;-77
2022/04/18 01:38:53;;;;;;;1.20;0.77;;;7.70;99.90;;;;;;4918257;29;20209;-77
2022/04/18 01:41:21;;;;;;;5.23;0.73;;;7.60;99.90;;;;;;4917703;29;20234;-77
2022/04/18 01:43:48;;;;;;;3.43;0.60;;;7.50;99.90;;;;;;4918112;29;20205;-77
2022/04/18 01:46:15;;;;;;;4.97;0.50;;;7.50;99.90;;;;;;4917628;29;20214;-77
2022/04/18 01:48:42;;;;;;;5.73;0.70;;;7.60;99.90;;;;;;4917764;29;20608;-76
2022/04/18 01:51:10;;;;;;;1.43;0.70;;;7.60;99.90;;;;;;4917506;29;20233;-75
2022/04/18 01:53:38;;;;;;;1.47;0.70;;;7.60;99.90;;;;;;4917325;29;20237;-78
2022/04/18 01:56:05;;;;;;;1.70;0.77;;;7.60;99.90;;;;;;4917724;29;20221;-78
2022/04/18 01:58:32;;;;;;;2.67;0.70;;;7.60;99.90;;;;;;4917556;29;20214;-77
2022/04/18 02:00:59;;;;;;;0.97;0.50;;;7.60;99.90;;;;;;4917711;29;20233;-77
2022/04/18 02:03:26;;;;;;;0.53;0.40;;;7.60;99.90;;;;;;4917146;29;20236;-76
2022/04/18 02:05:55;;;;;;;0.70;0.50;;;7.50;99.90;;;;;;4917588;29;20236;-77
2022/04/18 02:08:22;;;;;;;2.23;0.70;;;7.50;99.90;;;;;;4917654;29;20217;-78
2022/04/18 02:10:50;;;;;;;1.53;0.60;;;7.50;99.90;;;;;;4917297;29;20579;-78
2022/04/18 02:13:17;;;;;;;0.67;0.60;;;7.50;99.90;;;;;;4917284;29;20650;-77
2022/04/18 02:15:44;;;;;;;0.77;0.60;;;7.40;99.90;;;;;;4917161;29;20213;-77
2022/04/18 02:18:11;;;;;;;0.67;0.40;;;7.40;99.90;;;;;;4917173;29;20300;-77
2022/04/18 02:20:38;;;;;;;1.63;0.70;;;7.40;99.90;;;;;;4917164;29;20210;-78
2022/04/18 02:23:06;;;;;;;0.60;0.50;;;7.40;99.90;;;;;;4917318;29;20220;-77
2022/04/18 02:25:33;;;;;;;0.77;0.40;;;7.40;99.90;;;;;;4917296;29;20210;-77
2022/04/18 02:28:01;;;;;;;1.20;0.60;;;7.40;99.90;;;;;;4917086;29;20575;-75
2022/04/18 02:30:28;;;;;;;0.97;0.60;;;7.40;99.90;;;;;;4916725;29;20209;-76
2022/04/18 02:32:55;;;;;;;0.83;0.40;;;7.40;99.90;;;;;;4916870;29;20230;-75
2022/04/18 02:35:23;;;;;;;1.03;0.83;;;7.30;99.90;;;;;;4917515;29;20205;-74
2022/04/18 02:37:50;;;;;;;2.10;0.60;;;7.30;99.90;;;;;;4916835;29;20213;-77
2022/04/18 02:40:17;;;;;;;1.47;0.53;;;7.40;99.90;;;;;;4916995;29;20219;-70
2022/04/18 02:42:45;;;;;;;0.40;0.30;;;7.40;99.90;;;;;;4916707;29;20706;-69
2022/04/18 02:45:16;;;;;;;1.33;0.60;;;7.30;99.90;;;;;;4916448;29;20209;-69
2022/04/18 02:47:43;;;;;;;0.43;0.43;;;7.30;99.90;;;;;;4916790;29;20209;-69
2022/04/18 02:50:10;;;;;;;1.00;0.70;;;7.20;99.90;;;;;;4916918;29;20209;-69
2022/04/18 02:52:37;;;;;;;0.93;0.50;;;7.10;99.90;;;;;;4916520;29;20232;-73
2022/04/18 02:55:04;;;;;;;1.50;0.70;;;7.10;99.90;;;;;;4916976;29;20327;-77
2022/04/18 02:57:31;;;;;;;0.60;0.43;;;7.10;99.90;;;;;;4916489;29;20294;-77
2022/04/18 02:59:58;;;;;;;0.83;0.40;;;7.00;99.90;;;;;;4916864;29;20582;-77
2022/04/18 03:02:26;;;;;;;2.30;0.60;;;7.00;99.90;;;;;;4916802;29;20237;-78
2022/04/18 03:04:53;;;;;;;1.40;0.67;;;7.00;99.90;;;;;;4916787;29;20263;-78
2022/04/18 03:07:20;;;;;;;0.87;0.60;;;7.00;99.90;;;;;;4916685;29;20216;-77
2022/04/18 03:09:47;;;;;;;1.23;0.70;;;7.00;99.90;;;;;;4916936;29;20304;-77
2022/04/18 03:12:14;;;;;;;1.03;0.50;;;7.00;99.90;;;;;;4916694;29;20236;-77
2022/04/18 03:14:40;;;;;;;1.20;0.60;;;7.10;99.90;;;;;;4916360;29;20237;-77
2022/04/18 03:17:07;;;;;;;1.17;0.60;;;7.00;99.90;;;;;;4916364;29;20300;-77
2022/04/18 03:19:35;;;;;;;2.23;0.70;;;6.90;99.90;;;;;;4916813;29;20209;-78
2022/04/18 03:22:02;;;;;;;2.33;1.03;;;6.90;99.90;;;;;;4916400;29;20722;-78
2022/04/18 03:24:29;;;;;;;1.23;0.77;;;6.90;99.90;;;;;;4916618;29;20309;-77
2022/04/18 03:26:56;;;;;;;4.60;0.80;;;6.80;99.90;;;;;;4916696;29;20574;-76
2022/04/18 03:29:23;;;;;;;1.03;0.60;;;6.80;99.90;;;;;;4916609;29;20214;-78
2022/04/18 03:31:50;;;;;;;0.77;0.50;;;6.80;99.90;;;;;;4916351;29;20230;-78
2022/04/18 03:34:17;;;;;;;1.60;0.60;;;6.60;99.90;;;;;;4916452;29;20247;-76
2022/04/18 03:42:14;;;;;;;1.40;0.63;;;6.50;99.90;;;;;;4916696;29;20594;-78
2022/04/18 03:44:42;;;;;;;0.60;0.50;;;6.60;99.90;;;;;;4916227;29;20205;-77
2022/04/18 03:47:10;;;;;;;0.73;0.47;;;6.60;99.90;;;;;;4916172;29;20234;-78
2022/04/18 03:49:37;;;;;;;0.83;0.60;;;6.60;99.90;;;;;;4916280;29;20209;-77
2022/04/18 03:52:06;;;;;;;2.70;0.63;;;6.70;99.90;;;;;;4916156;29;20721;-77
2022/04/18 03:54:34;;;;;;;0.93;0.60;;;6.60;99.90;;;;;;4916171;29;20244;-76
2022/04/18 03:57:01;;;;;;;1.23;0.60;;;6.50;99.90;;;;;;4919027;29;20210;-78
2022/04/18 03:59:28;;;;;;;0.80;0.60;;;6.50;99.90;;;;;;4919702;29;20655;-78
2022/04/18 04:01:55;;;;;;;0.73;0.60;;;6.50;99.90;;;;;;4919601;29;20240;-78
2022/04/18 04:04:22;;;;;;;1.17;0.90;;;6.50;99.90;;;;;;4919635;29;20210;-77
2022/04/18 04:06:48;;;;;;;1.20;0.80;;;6.40;99.90;;;;;;4919576;29;20571;-77
2022/04/18 04:09:17;;;;;;;1.43;0.60;;;6.40;99.90;;;;;;4919493;29;20783;-77
2022/04/18 04:11:43;;;;;;;0.87;0.60;;;6.40;99.90;;;;;;4919315;29;20237;-77
2022/04/18 04:14:10;;;;;;;0.80;0.60;;;6.50;99.90;;;;;;4919160;29;20237;-78
2022/04/18 04:16:38;;;;;;;0.80;0.50;;;6.40;99.90;;;;;;4919131;29;20220;-77
2022/04/18 04:19:05;;;;;;;1.07;0.63;;;6.40;99.90;;;;;;4919563;29;20206;-77
2022/04/18 04:21:33;;;;;;;1.40;0.70;;;6.30;99.90;;;;;;4919187;29;20229;-77
2022/04/18 04:24:00;;;;;;;0.90;0.60;;;6.20;99.90;;;;;;4919280;29;20256;-77
2022/04/18 04:26:28;;;;;;;2.07;0.70;;;6.20;99.90;;;;;;4919115;29;20220;-75
2022/04/18 04:28:55;;;;;;;1.10;0.70;;;6.20;99.90;;;;;;4919528;29;20209;-76
2022/04/18 04:31:22;;;;;;;0.80;0.60;;;5.90;99.90;;;;;;4919002;29;20233;-77
2022/04/18 04:33:49;;;;;;;0.80;0.60;;;5.70;99.90;;;;;;4919072;29;20230;-77
2022/04/18 04:36:17;;;;;;;1.93;0.60;;;5.60;99.90;;;;;;4919279;29;20205;-77
2022/04/18 04:38:44;;;;;;;1.20;0.77;;;5.70;99.90;;;;;;4919035;29;20220;-77
2022/04/18 04:41:11;;;;;;;1.47;0.70;;;5.90;99.90;;;;;;4918708;29;20229;-77
2022/04/18 04:43:39;;;;;;;2.47;0.77;;;6.00;99.90;;;;;;4918966;29;20304;-77
2022/04/18 04:46:06;;;;;;;1.00;0.60;;;6.10;99.90;;;;;;4919032;29;20210;-78
2022/04/18 04:48:33;;;;;;;0.67;0.53;;;6.20;99.90;;;;;;4918978;29;20581;-70
2022/04/18 04:51:00;;;;;;;1.27;0.70;;;6.20;99.90;;;;;;4918830;29;20229;-78
2022/04/18 04:53:27;;;;;;;1.30;0.50;;;6.30;99.90;;;;;;4918579;29;20213;-77
2022/04/18 04:55:53;;;;;;;0.83;0.57;;;6.20;99.90;;;;;;4918808;29;20241;-78
2022/04/18 04:58:20;;;;;;;3.00;0.63;;;6.10;99.90;;;;;;4918736;29;20563;-78
2022/04/18 05:00:48;;;;;;;1.13;0.80;;;6.20;99.90;;;;;;4918431;29;20570;-77
2022/04/18 05:03:16;;;;;;;0.67;0.50;;;6.40;99.90;;;;;;4918601;29;20384;-77
2022/04/18 05:05:43;;;;;;;1.50;0.87;;;6.40;99.90;;;;;;4918497;29;20214;-78
2022/04/18 05:08:10;;;;;;;2.10;0.60;;;6.40;99.90;;;;;;4918124;29;20220;-76
2022/04/18 05:10:37;;;;;;;1.30;0.50;;;6.40;99.90;;;;;;4918273;29;20685;-77
2022/04/18 05:13:04;;;;;;;1.10;0.70;;;6.50;99.90;;;;;;4918502;29;20249;-77
2022/04/18 05:15:32;;;;;;;0.87;0.70;;;6.60;99.90;;;;;;4918202;29;20241;-76
2022/04/18 05:18:01;;;;;;;1.03;0.67;;;6.70;99.90;;;;;;4918593;29;20209;-76
2022/04/18 05:20:28;;;;;;;2.63;0.80;;;6.90;99.90;;;;;;4918150;29;20233;-78
2022/04/18 05:22:55;;;;;;;1.23;0.70;;;6.90;99.90;;;;;;4917951;29;20225;-77
2022/04/18 05:25:22;;;;;;;1.57;0.70;;;7.10;99.90;;;;;;4918088;29;20212;-77
2022/04/18 05:27:49;;;;;;;1.37;0.63;;;7.10;99.90;;;;;;4918288;29;20231;-78
2022/04/18 05:30:16;;;;;;;1.57;0.70;;;7.30;99.90;;;;;;4917928;29;20209;-78
2022/04/18 05:32:43;;;;;;;0.97;0.80;;;7.60;99.90;;;;;;4917688;29;20241;-77
2022/04/18 05:35:11;;;;;;;0.97;0.60;;;7.80;99.90;;;;;;4917894;29;20657;-78
2022/04/18 05:37:40;;;;;;;1.73;0.87;;;8.10;99.90;;;;;;4918129;29;20216;-77
2022/04/18 05:40:08;;;;;;;3.90;0.73;;;8.20;99.90;;;;;;4917860;29;20221;-78
2022/04/18 05:42:35;;;;;;;0.90;0.63;;;8.40;99.90;;;;;;4918144;29;20229;-77
2022/04/18 05:45:02;;;;;;;0.90;0.60;;;9.30;99.90;;;;;;4917783;29;20217;-77
2022/04/18 05:47:28;;;;;;;1.33;0.50;;;10.50;99.90;;;;;;4917853;29;20300;-69
2022/04/18 05:49:55;;;;;;;1.93;0.50;;;11.50;99.90;;;;;;4917746;29;20214;-69
2022/04/18 05:52:24;;;;;;;1.40;1.00;;;12.60;99.90;;;;;;4917620;29;20241;-68
2022/04/18 05:54:50;;;;;;;0.63;0.50;;;13.20;99.90;;;;;;4917249;29;20237;-69
2022/04/18 05:57:17;;;;;;;1.30;0.70;;;13.40;99.70;;;;;;4917389;29;20291;-69
2022/04/18 05:59:44;;;;;;;2.33;0.70;;;13.30;97.40;;;;;;4917600;29;20300;-73
2022/04/18 06:02:11;;;;;;;2.73;0.80;;;13.20;96.40;;;;;;4917356;29;20233;-70
2022/04/18 06:04:39;;;;;;;0.90;0.70;;;13.40;96.50;;;;;;4917506;29;20205;-77
2022/04/18 06:07:06;;;;;;;2.57;0.80;;;13.80;96.80;;;;;;4917798;29;20209;-69
2022/04/18 06:09:34;;;;;;;1.03;0.70;;;14.30;96.40;;;;;;4917528;29;20213;-78
2022/04/18 06:12:01;;;;;;;1.07;0.80;;;14.80;96.00;;;;;;4917434;29;20591;-72
2022/04/18 06:14:28;;;;;;;0.90;0.60;;;15.10;94.90;;;;;;4917137;29;20237;-77
2022/04/18 06:16:55;;;;;;;1.63;0.90;;;15.20;94.10;;;;;;4916756;29;20220;-78
2022/04/18 06:19:22;;;;;;;1.03;0.70;;;15.20;92.20;;;;;;4916570;29;20213;-78
2022/04/18 06:21:49;;;;;;;1.83;0.60;;;15.20;92.10;;;;;;4916917;29;20229;-79
2022/04/18 06:24:16;;;;;;;1.07;0.57;;;15.00;91.10;;;;;;4917040;29;20214;-79
2022/04/18 06:26:44;;;;;;;0.93;0.43;;;15.20;91.00;;;;;;4917245;29;20213;-77
2022/04/18 06:29:11;;;;;;;0.70;0.50;;;16.00;90.00;;;;;;4916971;29;20667;-78
2022/04/18 06:31:37;;;;;;;0.87;0.67;;;16.40;87.50;;;;;;4917520;29;20233;-78
2022/04/18 06:34:04;;;;;;;1.37;0.60;;;16.70;82.70;;;;;;4917388;29;20278;-76
2022/04/18 06:36:31;;;;;;;1.33;0.60;;;17.00;82.00;;;;;;4917214;29;20216;-77
2022/04/18 06:38:58;;;;;;;1.63;0.70;;;17.40;82.70;;;;;;4916609;29;20674;-77
2022/04/18 06:41:24;;;;;;;0.70;0.50;;;17.80;81.40;;;;;;4916637;29;20721;-77
2022/04/18 06:43:53;;;;;;;1.48;0.60;;;18.10;78.60;;;;;;4917150;29;20671;-77
2022/04/18 06:46:19;;;;;;;0.80;0.65;;;18.00;77.80;;;;;;4916294;29;20296;-78
2022/04/18 06:48:46;;;;;;;1.27;0.60;;;18.40;77.90;;;;;;4917153;29;20218;-77
2022/04/18 06:51:13;;;;;;;0.90;0.70;;;19.20;75.00;;;;;;4916784;29;20233;-77
2022/04/18 06:53:40;;;;;;;0.85;0.60;;;19.80;74.20;;;;;;4916589;29;20205;-78
2022/04/18 06:58:51;;;;;;;0.77;0.68;;;20.20;70.10;;;;;;4916542;29;20209;-74
2022/04/18 07:01:19;;;;;;;0.70;0.60;;;20.70;72.20;;;;;;4916708;29;20714;-77
2022/04/18 07:03:45;;;;;;;2.33;0.60;;;21.50;70.70;;;;;;4916121;29;20212;-78
2022/04/18 07:06:12;;;;;;;2.05;0.70;;;22.40;68.20;;;;;;4916719;29;20298;-77
2022/04/18 07:08:39;;;;;;;0.93;0.80;;;22.90;65.70;;;;;;4916648;29;20667;-77
2022/04/18 07:11:06;;;;;;;1.33;0.80;;;23.00;64.00;;;;;;4916595;29;20770;-77
2022/04/18 07:13:33;;;;;;;1.20;0.77;;;22.30;62.50;;;;;;4916795;29;20213;-76
2022/04/18 07:16:00;;;;;;;0.95;0.77;;;22.40;64.30;;;;;;4916359;29;20241;-78
2022/04/18 07:18:28;;;;;;;1.02;0.60;;;22.20;62.20;;;;;;4916570;29;20310;-77
2022/04/18 07:20:55;;;;;;;1.67;0.77;;;22.60;64.10;;;;;;4916449;29;20248;-78
2022/04/18 07:23:22;;;;;;;1.08;0.70;;;22.70;64.10;;;;;;4916424;29;20288;-77
2022/04/18 07:25:49;;;;;;;1.98;0.70;;;23.20;63.80;;;;;;4916498;29;20240;-76
2022/04/18 07:28:15;;;;;;;0.82;0.70;;;22.30;62.50;;;;;;4916478;29;20224;-76
2022/04/18 07:30:42;;;;;;;1.48;0.70;;;21.90;62.00;;;;;;4918856;29;20686;-76
2022/04/18 07:33:10;;;;;;;0.88;0.63;;;21.90;62.50;;;;;;4920013;29;20215;-79
2022/04/18 07:35:38;;;;;;;1.85;0.70;;;21.50;61.60;;;;;;4919784;29;20273;-76
2022/04/18 07:40:49;;;;;;;1.30;0.70;;;21.20;63.50;;;;;;4920212;29;20492;-75
2022/04/18 07:43:16;;;;;;;2.35;0.77;;;21.30;63.10;;;;;;4920102;29;20232;-71
2022/04/18 07:45:43;;;;;;;1.23;0.85;;;21.40;62.60;;;;;;4919919;29;20214;-77
2022/04/18 07:48:09;;;;;;;1.17;0.80;;;21.10;63.30;;;;;;4920038;29;20210;-77
2022/04/18 07:53:22;;;;;;;1.17;0.80;;;21.40;63.30;;;;;;4919938;29;20627;-70
2022/04/18 07:55:49;;;;;;;1.90;0.60;;;21.80;63.70;;;;;;4919685;29;20245;-69
2022/04/18 07:58:16;;;;;;;3.67;0.80;;;22.30;63.20;;;;;;4919880;29;20209;-69
2022/04/18 08:00:43;;;;;;;1.25;0.70;;;22.50;61.60;;;;;;4919509;29;20220;-77
2022/04/18 08:03:09;;;;;;;1.35;0.70;;;21.90;61.50;;;;;;4919526;29;20213;-71
2022/04/18 08:05:37;;;;;;;0.80;0.73;;;21.40;61.00;;;;;;4919845;29;20220;-73
2022/04/18 08:08:05;;;;;;;0.95;0.73;;;21.20;62.70;;;;;;4919603;29;20705;-71
2022/04/18 08:10:36;;;;;;;2.65;1.10;;;20.80;62.30;;;;;;4919706;29;20216;-77
2022/04/18 08:13:03;;;;;;;1.88;0.85;;;20.80;63.60;;;;;;4919263;29;20273;-78
2022/04/18 08:15:30;;;;;;;2.35;0.80;;;21.40;63.50;;;;;;4919246;29;20248;-77
2022/04/18 08:17:57;;;;;;;0.75;0.60;;;21.90;63.20;;;;;;4919180;29;20216;-78
2022/04/18 08:20:24;;;;;;;0.82;0.68;;;22.40;63.30;;;;;;4919652;29;20216;-74
2022/04/18 08:22:52;;;;;;;1.88;0.80;;;22.70;62.30;;;;;;4919615;29;20244;-78
2022/04/18 08:25:19;;;;;;;0.90;0.80;;;23.40;61.30;;;;;;4919382;29;20574;-72
2022/04/18 08:27:45;;;;;;;1.48;0.70;;;23.70;62.40;;;;;;4919451;29;20224;-71
2022/04/18 08:30:12;;;;;;;0.98;0.77;;;24.00;62.00;;;;;;4919272;29;20209;-79
2022/04/18 08:32:39;;;;;;;1.00;0.73;;;22.80;60.60;;;;;;4919139;29;20233;-69
2022/04/18 08:35:08;;;;;;;2.50;1.42;;;22.70;61.00;;;;;;4919991;29;20729;-70
2022/04/18 08:37:36;;;;;;;1.20;0.73;;;22.60;61.50;;;;;;4919315;29;20214;-74
2022/04/18 08:40:06;;;;;;;2.20;0.82;;;22.40;61.80;;;;;;4919045;29;20305;-69
2022/04/18 08:42:36;;;;;;;1.00;0.70;;;22.10;62.10;;;;;;4918203;29;20230;-69
2022/04/18 08:45:05;;;;;;;2.08;0.70;;;20.90;62.00;;;;;;4918877;29;20308;-70
2022/04/18 08:52:57;;;;;;;0.57;0.50;;;19.90;63.50;;;;;;4897114;29;20221;-70
2022/04/18 08:55:26;;;;;;;1.13;0.70;;;19.50;61.20;;;;;;4918705;29;20244;-78
2022/04/18 08:57:53;;;;;;;1.38;0.80;;;19.40;64.10;;;;;;4918877;29;20264;-70
2022/04/18 09:00:20;;;;;;;0.98;0.77;;;19.40;64.70;;;;;;4918710;29;20210;-79
2022/04/18 09:02:47;;;;;;;4.05;0.90;;;19.70;64.50;;;;;;4918790;29;20229;-73
2022/04/18 09:05:14;;;;;;;1.40;0.77;;;19.60;64.20;;;;;;4918496;29;20210;-76
2022/04/18 09:07:42;;;;;;;1.35;0.95;;;19.90;66.00;;;;;;4918607;29;20604;-78
2022/04/18 09:10:10;;;;;;;13.15;5.90;;;20.40;63.70;;;;;;4918671;29;20275;-69
2022/04/18 09:12:42;;;;;;;1.73;1.05;;;20.50;64.80;;;;;;4918598;29;20324;-70
2022/04/18 09:15:10;;;;;;;1.40;0.88;;;21.10;64.00;;;;;;4918262;29;20209;-73
2022/04/18 09:17:38;;;;;;;2.67;1.50;;;21.70;62.70;;;;;;4918490;29;20209;-74
2022/04/18 09:20:07;;;;;;;1.02;0.80;;;21.90;65.00;;;;;;4918516;29;20201;-78
2022/04/18 09:22:41;;;;;;;1.67;0.77;;;21.80;63.20;;;;;;4918430;29;20225;-78
2022/04/18 09:25:13;;;;;;;1.73;0.90;;;21.90;63.50;;;;;;4917930;29;20264;-79
2022/04/18 09:27:42;;;;;;;1.98;0.85;;;22.00;58.30;;;;;;4918311;29;20213;-69
2022/04/18 09:30:11;;;;;;;1.08;0.73;;;21.00;59.80;;;;;;4917740;29;20221;-78
2022/04/18 09:32:38;;;;;;;3.58;1.00;;;20.80;59.30;;;;;;4917227;29;20248;-69
2022/04/18 09:35:07;;;;;;;1.30;0.90;;;20.80;59.80;;;;;;4918040;29;20209;-73
2022/04/18 09:37:34;;;;;;;0.70;0.70;;;20.60;61.00;;;;;;4918154;29;20209;-71
2022/04/18 09:40:01;;;;;;;1.60;0.90;;;20.40;61.30;;;;;;4917768;29;20205;-78
2022/04/18 09:42:29;;;;;;;1.80;1.00;;;19.90;62.40;;;;;;4917339;29;20591;-76
2022/04/18 09:44:57;;;;;;;1.35;0.90;;;19.70;61.40;;;;;;4913380;29;20544;-70
2022/04/18 09:47:25;;;;;;;1.08;0.80;;;19.90;60.50;;;;;;4915902;29;20216;-69
2022/04/18 09:49:52;;;;;;;2.15;1.00;;;20.00;61.80;;;;;;4914656;29;20202;-71
2022/04/18 09:52:20;;;;;;;2.72;0.88;;;19.80;62.20;;;;;;4915836;29;20232;-77
2022/04/18 09:54:51;;;;;;;3.35;0.63;;;19.70;59.10;;;;;;4912885;29;20202;-74
2022/04/18 09:57:22;;;;;;;1.75;0.90;;;19.80;59.90;;;;;;4913483;29;20233;-73
2022/04/18 09:59:51;;;;;;;3.55;0.98;;;19.50;59.10;;;;;;4916210;29;20355;-76
2022/04/18 10:02:19;;;;;;;1.30;0.60;;;19.70;60.90;;;;;;4913450;29;20230;-77
2022/04/18 10:04:47;;;;;;;1.15;0.75;;;19.80;59.00;;;;;;4915720;29;20213;-79
2022/04/18 10:07:15;;;;;;;1.00;0.60;;;19.70;58.30;;;;;;4916265;29;20228;-72
2022/04/18 10:09:43;;;;;;;0.93;0.70;;;19.70;59.90;;;;;;4915225;29;20559;-70
2022/04/18 10:12:11;;;;;;;1.70;0.90;;;19.60;59.60;;;;;;4916183;29;20233;-78
2022/04/18 10:14:39;;;;;;;1.60;0.90;;;19.50;60.40;;;;;;4916892;29;20520;-75
2022/04/18 10:17:08;;;;;;;0.90;0.70;;;19.20;59.40;;;;;;4917065;29;20268;-70
2022/04/18 10:19:50;;;;;;;2.63;0.80;;;19.60;58.80;;;;;;4916836;29;20213;-70
2022/04/18 10:22:38;;;;;;;2.50;0.80;;;19.60;59.70;;;;;;4916322;29;20244;-75
2022/04/18 10:25:22;;;;;;;1.00;0.80;;;19.50;59.60;;;;;;4916342;29;20213;-69
2022/04/18 10:28:08;;;;;;;1.00;0.60;;;19.10;57.20;;;;;;4916851;29;20279;-78
2022/04/18 10:30:40;;;;;;;1.67;0.80;;;18.60;56.30;;;;;;4916875;29;20217;-77
2022/04/18 10:33:11;;;;;;;1.20;0.90;;;18.60;57.00;;;;;;4916979;29;20209;-78
2022/04/18 10:35:47;;;;;;;2.93;0.87;;;18.90;57.10;;;;;;4917324;29;22097;-78
2022/04/18 10:38:14;;;;;;;1.13;0.82;;;18.80;58.30;;;;;;4916429;29;20566;-78
2022/04/18 10:40:41;;;;;;;0.90;0.43;;;18.90;59.20;;;;;;4916992;29;20209;-78
2022/04/18 10:43:10;;;;;;;1.25;0.70;;;18.70;56.80;;;;;;4916372;29;20214;-69
2022/04/18 10:45:37;;;;;;;1.50;0.70;;;18.80;59.10;;;;;;4916559;29;20257;-71
2022/04/18 10:48:09;;;;;;;3.75;0.60;;;19.00;57.80;;;;;;4916930;29;20216;-79
2022/04/18 10:50:40;;;;;;;2.53;0.80;;;19.00;58.80;;;;;;4916678;29;20292;-76
2022/04/18 10:53:14;;;;;;;0.82;0.60;;;19.20;58.80;;;;;;4916838;29;20221;-70
2022/04/18 10:56:02;;;;;;;2.78;0.88;;;19.20;57.20;;;;;;4916071;29;20216;-78
2022/04/18 10:58:31;;;;;;;2.20;1.17;;;18.80;57.70;;;;;;4916289;29;20210;-78
2022/04/18 11:00:59;;;;;;;1.40;0.70;;;19.00;58.30;;;;;;4915913;29;20649;-69
2022/04/18 11:03:44;;;;;;;1.58;0.90;;;19.10;58.00;;;;;;4916162;29;20663;-69
2022/04/18 11:06:36;;;;;;;1.05;0.85;;;18.80;56.40;;;;;;4915285;29;20228;-78
2022/04/18 11:09:07;;;;;;;2.38;0.70;;;18.80;56.30;;;;;;4914995;29;20202;-79
2022/04/18 11:11:35;;;;;;;1.20;0.95;;;19.00;58.10;;;;;;4912410;29;20235;-78
2022/04/18 11:14:03;;;;;;;1.20;0.80;;;18.90;56.90;;;;;;4915719;29;20210;-77
2022/04/18 11:16:49;;;;;;;1.15;0.80;;;18.60;58.00;;;;;;4914700;29;20320;-78
2022/04/18 11:19:19;;;;;;;1.20;0.95;;;18.70;57.20;;;;;;4916070;29;20220;-72
2022/04/18 11:22:10;;;;;;;1.40;0.80;;;18.70;56.00;;;;;;4915540;29;20225;-74
2022/04/18 11:24:39;;;;;;;1.58;1.08;;;18.70;56.90;;;;;;4915656;29;20209;-69
2022/04/18 11:27:09;;;;;;;1.60;0.70;;;18.60;56.10;;;;;;4914589;29;20229;-68
2022/04/18 11:29:36;;;;;;;1.42;1.00;;;18.60;59.10;;;;;;4904823;29;20568;-70
2022/04/18 11:32:04;;;;;;;3.13;1.07;;;18.50;58.00;;;;;;4903514;29;20236;-69
2022/04/18 11:34:32;;;;;;;1.33;0.87;;;18.70;58.90;;;;;;4901303;29;20197;-70
2022/04/18 11:37:01;;;;;;;1.98;0.90;;;18.70;58.30;;;;;;4908850;29;20233;-75
2022/04/18 11:39:43;;;;;;;1.00;0.80;;;18.70;60.10;;;;;;4915902;29;20268;-69
2022/04/18 11:42:15;;;;;;;1.93;0.77;;;18.80;59.40;;;;;;4932151;29;20217;-77
2022/04/18 11:44:42;;;;;;;1.38;0.70;;;19.00;60.90;;;;;;4933973;29;20232;-69
2022/04/18 11:47:20;;;;;;;0.90;0.70;;;19.10;58.80;;;;;;4934597;29;20219;-75
2022/04/18 11:49:50;;;;;;;2.40;0.73;;;19.00;57.00;;;;;;4926967;29;20227;-73
2022/04/18 11:52:19;;;;;;;3.33;1.00;;;19.20;58.10;;;;;;4915830;29;20234;-68
2022/04/18 11:55:14;;;;;;;1.08;0.73;;;19.00;56.80;;;;;;4915804;29;20209;-69
2022/04/18 11:57:43;;;;;;;1.00;0.90;;;18.90;57.20;;;;;;4902774;29;20728;-70
2022/04/18 12:00:12;;;;;;;1.83;1.00;;;18.90;57.10;;;;;;4916029;29;20667;-70
2022/04/18 12:08:13;;;;;;;0.75;0.52;;;19.50;56.90;;;;;;4914928;29;20265;-75
2022/04/18 12:10:42;;;;;;;0.98;0.40;;;19.60;55.20;;;;;;4915530;29;20674;-69
2022/04/18 12:13:10;;;;;;;0.90;0.50;;;19.40;54.70;;;;;;4915713;29;20305;-76
2022/04/18 12:15:38;;;;;;;0.60;0.50;;;19.10;54.70;;;;;;4915319;29;20220;-78
2022/04/18 12:18:10;;;;;;;0.75;0.57;;;19.20;55.00;;;;;;4917449;29;20225;-78
2022/04/18 12:20:42;;;;;;;1.88;0.70;;;19.30;55.60;;;;;;4910933;29;20224;-71
2022/04/18 12:23:14;;;;;;;0.77;0.50;;;19.20;55.80;;;;;;4918171;29;20217;-74
2022/04/18 12:25:45;;;;;;;0.85;0.73;;;19.20;55.40;;;;;;4918247;29;20225;-69
2022/04/18 12:28:12;;;;;;;1.10;0.75;;;19.10;55.30;;;;;;4917271;29;20269;-73
2022/04/18 12:30:39;;;;;;;0.70;0.60;;;19.10;53.40;;;;;;4918230;29;20202;-71
2022/04/18 12:33:14;;;;;;;1.35;0.70;;;19.10;56.10;;;;;;4917929;29;20297;-73
2022/04/18 12:35:42;;;;;;;0.98;0.65;;;19.20;55.70;;;;;;4918618;29;20211;-76
2022/04/18 12:38:11;;;;;;;1.90;0.73;;;19.20;54.80;;;;;;4918302;29;20233;-70
2022/04/18 12:40:40;;;;;;;0.52;0.50;;;19.20;54.70;;;;;;4917661;29;20210;-72
2022/04/18 12:43:10;;;;;;;1.17;0.68;;;19.30;54.80;;;;;;4918279;29;20666;-78
2022/04/18 12:45:49;;;;;;;0.90;0.52;;;19.30;56.10;;;;;;4915503;29;20227;-72
2022/04/18 12:48:24;;;;;;;1.20;0.70;;;19.20;54.90;;;;;;4915806;29;20228;-76
2022/04/18 12:50:51;;;;;;;3.08;0.63;;;19.40;56.40;;;;;;4914437;29;20209;-72
2022/04/18 12:53:19;;;;;;;1.65;0.70;;;19.40;55.40;;;;;;4916785;29;20209;-70
2022/04/18 12:55:47;;;;;;;2.08;0.98;;;19.50;56.10;;;;;;4916584;29;20296;-73
2022/04/18 12:58:22;;;;;;;1.13;0.80;;;19.50;55.40;;;;;;4916378;29;20417;-71
2022/04/18 13:00:50;;;;;;;1.70;0.63;;;19.80;55.50;;;;;;4913006;29;20232;-71
2022/04/18 13:03:18;;;;;;;1.77;0.90;;;19.50;55.70;;;;;;4912183;29;20216;-69
2022/04/18 13:05:46;;;;;;;0.80;0.60;;;19.40;56.10;;;;;;4916635;29;20209;-74
2022/04/18 13:08:15;;;;;;;2.00;0.75;;;19.50;56.30;;;;;;4916240;29;20205;-77
2022/04/18 13:10:42;;;;;;;0.80;0.70;;;19.50;55.10;;;;;;4916303;29;20634;-70
2022/04/18 13:13:12;;;;;;;0.90;0.63;;;19.60;56.30;;;;;;4916694;29;20220;-70
2022/04/18 13:15:40;;;;;;;0.88;0.50;;;19.80;56.10;;;;;;4907907;29;20211;-71
2022/04/18 13:18:09;;;;;;;0.80;0.60;;;19.80;55.80;;;;;;4916828;29;20269;-70
2022/04/18 13:20:37;;;;;;;0.50;0.50;;;19.70;55.10;;;;;;4912469;29;20245;-76
2022/04/18 13:23:05;;;;;;;0.80;0.60;;;19.50;54.10;;;;;;4907771;29;20233;-67
2022/04/18 13:25:32;;;;;;;0.82;0.70;;;19.30;54.80;;;;;;4916093;29;20243;-70